Time;durP1;ratioP1;P1;durP2;ratioP2;P2;SDS_P1;SDS_P2;PMS_P1;PMS_P2;Temp;Humidity;BMP_temperature;BMP_pressure;BME280_temperature;BME280_humidity;BME280_pressure;Samples;Min_cycle;Max_cycle;Signal;HPM_P1;HPM_P2
2022/01/27 00:03:06;;;;;;;75.50;25.90;;;7.60;80.90;;;;;;2347305;57;21010;-77
2022/01/27 00:05:33;;;;;;;67.47;25.33;;;7.70;80.90;;;;;;2345149;57;21101;-76
2022/01/27 00:08:11;;;;;;;66.12;26.23;;;7.70;80.90;;;;;;2346107;57;21054;-78
2022/01/27 00:10:52;;;;;;;62.33;25.25;;;7.70;80.60;;;;;;2344613;57;21138;-79
2022/01/27 00:13:24;;;;;;;67.50;24.87;;;7.70;80.60;;;;;;2345961;57;21050;-78
2022/01/27 00:15:59;;;;;;;60.95;22.50;;;7.80;80.60;;;;;;2346331;57;21046;-78
2022/01/27 00:18:29;;;;;;;59.25;23.75;;;7.80;80.40;;;;;;2346252;57;21038;-77
2022/01/27 00:20:57;;;;;;;67.90;23.38;;;7.80;80.40;;;;;;2345882;57;21483;-79
2022/01/27 00:23:24;;;;;;;69.90;25.23;;;7.80;80.40;;;;;;2345949;57;21037;-79
2022/01/27 00:25:51;;;;;;;69.55;25.45;;;7.70;80.50;;;;;;2345778;57;21528;-77
2022/01/27 00:28:19;;;;;;;62.30;24.80;;;7.70;80.70;;;;;;2346113;57;21112;-78
2022/01/27 00:30:46;;;;;;;82.43;28.73;;;7.60;81.10;;;;;;2592671;53;21061;-78
2022/01/27 00:33:13;;;;;;;67.50;27.25;;;7.70;81.30;;;;;;2592967;53;21217;-78
2022/01/27 00:35:40;;;;;;;57.15;22.83;;;7.70;81.20;;;;;;2346052;57;21030;-79
2022/01/27 00:38:08;;;;;;;62.80;23.05;;;7.70;81.10;;;;;;2346233;57;21064;-79
2022/01/27 00:40:35;;;;;;;68.37;25.42;;;7.70;81.00;;;;;;2345446;57;21058;-79
2022/01/27 00:43:02;;;;;;;57.80;26.48;;;7.70;80.90;;;;;;2593343;53;21113;-78
2022/01/27 00:45:32;;;;;;;64.62;25.98;;;7.80;80.90;;;;;;2345462;57;21521;-79
2022/01/27 00:48:03;;;;;;;73.37;28.85;;;7.80;80.80;;;;;;2346280;57;21125;-78
2022/01/27 00:50:32;;;;;;;64.25;25.62;;;7.80;80.80;;;;;;2345720;57;21045;-79
2022/01/27 00:53:02;;;;;;;65.10;26.60;;;7.80;80.70;;;;;;2345946;57;21058;-79
2022/01/27 00:55:33;;;;;;;64.32;24.70;;;7.90;80.90;;;;;;2592721;53;21548;-79
2022/01/27 00:58:11;;;;;;;67.70;25.08;;;7.90;80.60;;;;;;2593148;52;21034;-78
2022/01/27 01:00:44;;;;;;;57.28;24.75;;;7.90;80.50;;;;;;2592282;53;21054;-80
2022/01/27 01:03:23;;;;;;;64.35;26.48;;;7.90;80.40;;;;;;2346682;57;21061;-76
2022/01/27 01:06:07;;;;;;;75.93;27.27;;;7.90;80.40;;;;;;2346193;57;21034;-79
2022/01/27 01:17:02;;;;;;;77.00;29.15;;;7.90;80.20;;;;;;2345874;57;21022;-80
2022/01/27 01:19:41;;;;;;;67.95;27.83;;;7.90;80.10;;;;;;2345989;57;21069;-79
2022/01/27 01:30:51;;;;;;;70.65;27.95;;;7.90;80.60;;;;;;2344294;57;21009;-78
2022/01/27 01:33:23;;;;;;;82.43;30.92;;;7.80;80.40;;;;;;2592452;52;21046;-78
2022/01/27 01:36:01;;;;;;;78.10;30.80;;;7.80;80.70;;;;;;2592655;53;21082;-78
2022/01/27 01:38:30;;;;;;;74.72;30.40;;;7.90;80.70;;;;;;2346010;57;21046;-78
2022/01/27 01:40:59;;;;;;;70.35;27.23;;;7.90;80.70;;;;;;2345923;57;21133;-78
2022/01/27 01:43:28;;;;;;;67.12;27.73;;;7.90;80.50;;;;;;2346158;57;21129;-77
2022/01/27 01:45:56;;;;;;;62.33;25.25;;;7.90;80.40;;;;;;2346007;57;21042;-79
2022/01/27 01:48:24;;;;;;;64.15;27.08;;;7.90;80.40;;;;;;2345808;57;21093;-79
2022/01/27 01:50:51;;;;;;;68.62;30.15;;;7.90;80.50;;;;;;2345825;57;21042;-79
2022/01/27 01:53:19;;;;;;;77.53;30.73;;;7.80;80.40;;;;;;2345681;57;21078;-79
2022/01/27 01:55:46;;;;;;;80.68;33.70;;;7.80;80.50;;;;;;2591372;53;21552;-78
2022/01/27 01:58:13;;;;;;;76.85;31.27;;;7.90;80.50;;;;;;2592783;52;21678;-77
2022/01/27 02:00:41;;;;;;;80.35;33.80;;;7.90;80.40;;;;;;2345252;57;21065;-79
2022/01/27 02:03:08;;;;;;;73.82;31.83;;;7.80;80.50;;;;;;2345813;57;21113;-79
2022/01/27 02:05:41;;;;;;;77.62;30.37;;;7.80;80.60;;;;;;2592860;53;21042;-77
2022/01/27 02:19:27;;;;;;;82.70;33.53;;;7.70;80.60;;;;;;2345208;57;21049;-78
2022/01/27 02:21:57;;;;;;;80.50;33.00;;;7.70;80.60;;;;;;2345989;57;21102;-77
2022/01/27 02:24:28;;;;;;;77.80;31.77;;;7.70;80.70;;;;;;2345736;57;21041;-79
2022/01/27 02:26:56;;;;;;;65.55;28.80;;;7.70;80.70;;;;;;2592859;53;21051;-79
2022/01/27 02:29:24;;;;;;;72.12;30.23;;;7.80;80.50;;;;;;2345551;57;21042;-79
2022/01/27 02:31:53;;;;;;;83.12;32.55;;;7.70;80.50;;;;;;2345409;57;21126;-79
2022/01/27 02:34:21;;;;;;;71.35;31.20;;;7.70;80.70;;;;;;2346073;57;21101;-79
2022/01/27 02:36:49;;;;;;;74.47;30.00;;;7.70;80.60;;;;;;2345708;57;21058;-78
2022/01/27 02:39:18;;;;;;;71.72;30.65;;;7.70;80.40;;;;;;2345520;57;21042;-78
2022/01/27 02:41:56;;;;;;;74.70;30.02;;;7.70;80.20;;;;;;2346079;57;21062;-78
2022/01/27 02:44:33;;;;;;;71.95;31.02;;;7.70;80.20;;;;;;2592394;53;21409;-77
2022/01/27 02:47:00;;;;;;;68.20;28.50;;;7.70;80.30;;;;;;2345406;57;21085;-79
2022/01/27 02:49:27;;;;;;;66.37;29.55;;;7.70;80.20;;;;;;2345627;57;21050;-79
2022/01/27 02:51:55;;;;;;;76.85;31.90;;;7.70;80.20;;;;;;2592410;53;21576;-80
2022/01/27 02:54:22;;;;;;;67.93;27.10;;;7.70;80.20;;;;;;2346118;57;21092;-77
2022/01/27 02:56:50;;;;;;;70.57;28.42;;;7.70;80.20;;;;;;2345349;57;21069;-79
2022/01/27 02:59:19;;;;;;;77.65;31.35;;;7.70;80.20;;;;;;2592462;53;21512;-79
2022/01/27 03:01:48;;;;;;;73.72;31.70;;;7.70;80.00;;;;;;2345749;57;21129;-78
2022/01/27 03:04:16;;;;;;;75.70;31.98;;;7.70;79.90;;;;;;2345674;57;21050;-79
2022/01/27 03:06:45;;;;;;;78.60;29.10;;;7.70;80.00;;;;;;2592760;53;21030;-78
2022/01/27 03:09:12;;;;;;;67.05;26.15;;;7.70;79.80;;;;;;2345131;57;21128;-80
2022/01/27 03:11:45;;;;;;;72.65;31.42;;;7.70;79.70;;;;;;2592751;53;21548;-78
2022/01/27 03:14:13;;;;;;;66.75;28.67;;;7.60;79.60;;;;;;2592792;53;21050;-78
2022/01/27 03:16:41;;;;;;;72.53;28.67;;;7.60;79.80;;;;;;2592792;52;21054;-79
2022/01/27 03:19:09;;;;;;;71.35;29.70;;;7.60;79.70;;;;;;2345487;57;21105;-79
2022/01/27 03:21:37;;;;;;;63.60;28.08;;;7.70;79.50;;;;;;2345892;57;21038;-77
2022/01/27 03:24:06;;;;;;;69.68;27.85;;;7.70;79.50;;;;;;2345989;57;21046;-78
2022/01/27 03:26:34;;;;;;;62.25;28.98;;;7.70;79.30;;;;;;2592855;53;21529;-79
2022/01/27 03:29:01;;;;;;;80.60;31.17;;;7.70;79.30;;;;;;2591860;52;21049;-78
2022/01/27 03:31:29;;;;;;;74.78;30.02;;;7.70;79.30;;;;;;2345240;57;21058;-78
2022/01/27 03:33:56;;;;;;;65.20;29.87;;;7.70;79.50;;;;;;2345722;57;21105;-79
2022/01/27 03:36:25;;;;;;;65.90;28.15;;;7.70;79.40;;;;;;2345722;57;21581;-79
2022/01/27 03:38:52;;;;;;;68.78;27.80;;;7.70;79.40;;;;;;2344890;57;21173;-78
2022/01/27 03:41:21;;;;;;;75.75;30.65;;;7.70;79.40;;;;;;2345997;57;21042;-78
2022/01/27 03:43:51;;;;;;;80.15;32.13;;;7.70;79.50;;;;;;2345745;57;21085;-78
2022/01/27 03:46:19;;;;;;;68.20;26.92;;;7.70;79.40;;;;;;2346169;57;21093;-78
2022/01/27 03:48:46;;;;;;;71.05;29.55;;;7.80;79.40;;;;;;2344815;57;21069;-75
2022/01/27 03:51:13;;;;;;;72.05;30.58;;;7.80;79.50;;;;;;2344603;57;21032;-77
2022/01/27 03:53:40;;;;;;;71.47;30.15;;;7.70;79.50;;;;;;2452039;52;68959;-79
2022/01/27 03:56:08;;;;;;;63.35;27.55;;;7.70;79.70;;;;;;2388678;56;21082;-78
2022/01/27 03:58:36;;;;;;;72.32;29.85;;;7.70;79.90;;;;;;2645972;52;21606;-78
2022/01/27 04:01:04;;;;;;;70.62;30.58;;;7.70;79.80;;;;;;2389037;56;21050;-79
2022/01/27 04:03:35;;;;;;;60.95;25.33;;;7.70;79.80;;;;;;2372445;56;21140;-77
2022/01/27 04:06:06;;;;;;;71.25;29.60;;;7.70;79.80;;;;;;2361010;56;21483;-78
2022/01/27 04:08:36;;;;;;;68.00;27.17;;;7.70;79.90;;;;;;2361406;57;21120;-77
2022/01/27 04:11:04;;;;;;;59.85;26.65;;;7.60;80.10;;;;;;2361754;57;21119;-79
2022/01/27 04:13:31;;;;;;;62.30;24.65;;;7.60;80.00;;;;;;2612197;52;21099;-79
2022/01/27 04:15:59;;;;;;;65.28;26.10;;;7.70;80.20;;;;;;2361816;57;21561;-78
2022/01/27 04:18:27;;;;;;;55.63;24.00;;;7.70;80.00;;;;;;2612187;53;21040;-79
2022/01/27 04:20:55;;;;;;;65.37;27.08;;;7.70;80.00;;;;;;2611426;53;21017;-78
2022/01/27 04:23:22;;;;;;;69.50;30.17;;;7.70;80.00;;;;;;2611696;53;21109;-80
2022/01/27 04:25:50;;;;;;;71.18;30.20;;;7.60;80.00;;;;;;2612099;53;21065;-80
2022/01/27 04:28:23;;;;;;;75.70;28.70;;;7.60;80.10;;;;;;2361541;57;21036;-77
2022/01/27 04:30:53;;;;;;;71.25;29.85;;;7.60;80.10;;;;;;2611447;53;21076;-79
2022/01/27 04:33:24;;;;;;;66.12;27.05;;;7.60;80.00;;;;;;2611696;52;21084;-80
2022/01/27 04:35:52;;;;;;;69.80;28.80;;;7.60;80.00;;;;;;2361500;57;21065;-78
2022/01/27 04:38:28;;;;;;;56.03;25.95;;;7.60;79.90;;;;;;2610696;53;21083;-79
2022/01/27 04:41:04;;;;;;;60.47;26.25;;;7.60;79.90;;;;;;2610708;52;21064;-78
2022/01/27 04:46:19;;;;;;;57.70;26.33;;;7.60;80.00;;;;;;2355689;57;22552;-76
2022/01/27 04:48:51;;;;;;;57.40;24.45;;;7.60;80.20;;;;;;2346891;57;21076;-76
2022/01/27 04:51:23;;;;;;;60.08;24.63;;;7.60;80.20;;;;;;2320612;58;21127;-76
2022/01/27 04:53:56;;;;;;;60.20;27.37;;;7.60;80.00;;;;;;2320628;58;21142;-76
2022/01/27 04:56:25;;;;;;;63.30;25.42;;;7.60;80.10;;;;;;2320628;58;21112;-76
2022/01/27 04:58:56;;;;;;;59.95;25.45;;;7.60;80.10;;;;;;2319645;58;21060;-76
2022/01/27 05:01:30;;;;;;;54.00;24.58;;;7.60;80.20;;;;;;2320064;58;21103;-77
2022/01/27 05:04:06;;;;;;;56.25;23.83;;;7.60;80.20;;;;;;2320165;58;21104;-75
2022/01/27 05:06:33;;;;;;;59.35;24.83;;;7.60;80.20;;;;;;2320539;58;21048;-75
2022/01/27 05:09:01;;;;;;;63.78;28.52;;;7.60;80.30;;;;;;2319691;58;21123;-76
2022/01/27 05:11:31;;;;;;;56.70;23.95;;;7.60;80.20;;;;;;2320344;58;21135;-75
2022/01/27 05:14:05;;;;;;;54.92;25.12;;;7.60;80.00;;;;;;2320348;58;21213;-75
2022/01/27 05:16:32;;;;;;;50.33;22.08;;;7.60;80.60;;;;;;2319943;58;22087;-75
2022/01/27 05:19:00;;;;;;;52.95;23.30;;;7.60;80.10;;;;;;2320248;58;21126;-75
2022/01/27 05:21:27;;;;;;;51.42;25.35;;;7.60;80.20;;;;;;2319907;58;21056;-77
2022/01/27 05:23:54;;;;;;;54.05;23.77;;;7.60;80.20;;;;;;2561419;54;21107;-75
2022/01/27 05:26:21;;;;;;;49.08;22.90;;;7.60;80.20;;;;;;2561109;54;21040;-76
2022/01/27 05:28:49;;;;;;;44.72;21.60;;;7.60;80.20;;;;;;2319784;58;21615;-76
2022/01/27 05:31:16;;;;;;;45.92;24.58;;;7.60;80.20;;;;;;2318973;58;21052;-75
2022/01/27 05:33:43;;;;;;;56.72;23.02;;;7.60;80.30;;;;;;2319900;58;21032;-75
2022/01/27 05:36:10;;;;;;;41.10;19.67;;;7.60;80.20;;;;;;2320580;58;21131;-76
2022/01/27 05:38:38;;;;;;;55.55;24.12;;;7.60;80.00;;;;;;2320655;58;21103;-76
2022/01/27 05:41:06;;;;;;;42.42;19.87;;;7.70;80.10;;;;;;2320270;58;21107;-76
2022/01/27 05:43:34;;;;;;;44.40;20.67;;;7.70;80.00;;;;;;2320413;58;21044;-76
2022/01/27 05:46:01;;;;;;;45.95;19.52;;;7.60;80.00;;;;;;2320423;58;21131;-75
2022/01/27 05:48:28;;;;;;;48.92;22.08;;;7.60;80.20;;;;;;2320323;58;21072;-75
2022/01/27 05:50:56;;;;;;;50.78;23.70;;;7.60;80.40;;;;;;2319973;58;21107;-76
2022/01/27 05:53:24;;;;;;;50.67;23.35;;;7.50;80.70;;;;;;2320500;58;21115;-75
2022/01/27 05:55:51;;;;;;;42.28;20.00;;;7.60;80.60;;;;;;2319271;58;21044;-76
2022/01/27 05:58:19;;;;;;;40.88;19.17;;;7.50;80.80;;;;;;2318897;58;21079;-75
2022/01/27 06:00:47;;;;;;;43.67;21.80;;;7.50;80.70;;;;;;2318937;58;21060;-76
2022/01/27 06:03:14;;;;;;;39.50;19.12;;;7.60;80.90;;;;;;2319431;58;21056;-79
2022/01/27 06:05:41;;;;;;;37.03;18.23;;;7.50;81.70;;;;;;2319029;58;21068;-76
2022/01/27 06:08:08;;;;;;;36.13;17.08;;;7.50;81.10;;;;;;2319380;58;21214;-76
2022/01/27 06:10:36;;;;;;;37.20;17.80;;;7.50;81.00;;;;;;2318969;58;21060;-75
2022/01/27 06:13:03;;;;;;;40.00;19.37;;;7.50;81.10;;;;;;2319602;58;21594;-76
2022/01/27 06:15:30;;;;;;;41.20;19.37;;;7.50;81.00;;;;;;2319326;58;21061;-76
2022/01/27 06:17:58;;;;;;;39.55;20.62;;;7.50;80.90;;;;;;2319458;58;21534;-75
2022/01/27 06:20:28;;;;;;;41.42;19.17;;;7.50;80.80;;;;;;2318812;58;21044;-76
2022/01/27 06:22:57;;;;;;;40.42;19.27;;;7.60;80.90;;;;;;2319216;58;21047;-75
2022/01/27 06:25:26;;;;;;;43.38;20.95;;;7.60;80.90;;;;;;2319242;58;21119;-75
2022/01/27 06:27:54;;;;;;;45.90;20.25;;;7.50;81.00;;;;;;2319783;58;21048;-76
2022/01/27 06:30:21;;;;;;;44.03;19.60;;;7.50;81.20;;;;;;2318459;58;21388;-76
2022/01/27 06:32:49;;;;;;;46.90;21.15;;;7.50;81.50;;;;;;2319574;58;21044;-75
2022/01/27 06:35:16;;;;;;;40.25;18.58;;;7.50;81.50;;;;;;2319459;58;21136;-75
2022/01/27 06:37:45;;;;;;;35.13;17.60;;;7.50;81.60;;;;;;2319558;58;21666;-76
2022/01/27 06:40:14;;;;;;;33.83;17.12;;;7.50;81.50;;;;;;2319267;58;21036;-76
2022/01/27 06:42:42;;;;;;;32.13;15.07;;;7.50;81.50;;;;;;2319330;58;21131;-75
2022/01/27 06:45:11;;;;;;;31.25;15.80;;;7.60;81.40;;;;;;2319568;58;21035;-75
2022/01/27 06:47:38;;;;;;;34.88;15.98;;;7.60;81.30;;;;;;2319698;58;21041;-75
2022/01/27 06:50:07;;;;;;;32.08;15.55;;;7.60;81.30;;;;;;2319114;58;21128;-75
2022/01/27 06:52:34;;;;;;;35.33;16.55;;;7.60;81.40;;;;;;2319706;58;21115;-75
2022/01/27 06:55:03;;;;;;;37.42;16.65;;;7.60;81.30;;;;;;2319427;58;21048;-76
2022/01/27 06:57:30;;;;;;;28.90;14.43;;;7.60;81.30;;;;;;2561046;54;21049;-75
2022/01/27 06:59:58;;;;;;;30.08;14.30;;;7.60;81.70;;;;;;2319081;58;21048;-75
2022/01/27 07:02:25;;;;;;;31.95;13.25;;;7.60;81.50;;;;;;2319882;58;21107;-75
2022/01/27 07:04:52;;;;;;;30.65;13.73;;;7.70;81.50;;;;;;2319463;58;21058;-75
2022/01/27 07:07:20;;;;;;;34.33;15.80;;;7.60;81.30;;;;;;2319770;58;21511;-76
2022/01/27 07:09:47;;;;;;;26.12;13.10;;;7.60;81.40;;;;;;2318900;58;21140;-75
2022/01/27 07:12:14;;;;;;;31.35;15.68;;;7.60;81.70;;;;;;2319639;58;21127;-76
2022/01/27 07:14:41;;;;;;;29.87;14.40;;;7.60;81.70;;;;;;2319528;58;21626;-75
2022/01/27 07:17:08;;;;;;;32.92;15.27;;;7.60;81.80;;;;;;2319510;58;21128;-76
2022/01/27 07:19:36;;;;;;;27.27;14.05;;;7.60;81.90;;;;;;2319254;58;21100;-75
2022/01/27 07:22:03;;;;;;;29.83;14.63;;;7.60;81.80;;;;;;2319379;58;21115;-75
2022/01/27 07:24:31;;;;;;;29.45;15.23;;;7.60;81.80;;;;;;2319640;58;21131;-76
2022/01/27 07:26:58;;;;;;;28.60;13.93;;;7.60;81.80;;;;;;2319619;58;21578;-75
2022/01/27 07:29:25;;;;;;;28.73;12.65;;;7.60;81.90;;;;;;2319277;58;21543;-75
2022/01/27 07:31:52;;;;;;;29.55;13.62;;;7.60;82.00;;;;;;2318756;58;21456;-75
2022/01/27 07:34:20;;;;;;;31.70;14.70;;;7.60;82.00;;;;;;2319622;58;21096;-76
2022/01/27 07:36:48;;;;;;;23.87;12.10;;;7.70;81.90;;;;;;2319464;58;21640;-75
2022/01/27 07:39:16;;;;;;;31.98;13.55;;;7.70;81.80;;;;;;2560556;54;21107;-75
2022/01/27 07:41:45;;;;;;;25.52;12.80;;;7.70;81.90;;;;;;2319708;58;21115;-76
2022/01/27 07:44:13;;;;;;;28.08;13.80;;;7.70;81.80;;;;;;2319641;58;21112;-76
2022/01/27 07:46:40;;;;;;;28.00;12.70;;;7.70;81.70;;;;;;2319393;58;21128;-77
2022/01/27 07:49:08;;;;;;;32.50;15.75;;;7.70;81.80;;;;;;2559938;54;21036;-75
2022/01/27 07:51:35;;;;;;;31.30;13.80;;;7.70;81.90;;;;;;2319415;58;21075;-75
2022/01/27 07:54:03;;;;;;;25.52;13.32;;;7.70;82.00;;;;;;2319721;58;21551;-76
2022/01/27 07:56:30;;;;;;;27.65;13.43;;;7.70;82.10;;;;;;2318523;58;21539;-76
2022/01/27 07:58:57;;;;;;;30.52;14.60;;;7.70;82.20;;;;;;2318645;58;21123;-76
2022/01/27 08:01:24;;;;;;;25.50;13.15;;;7.70;81.90;;;;;;2319490;58;21103;-75
2022/01/27 08:03:52;;;;;;;26.87;14.05;;;7.80;82.10;;;;;;2560540;54;21036;-76
2022/01/27 08:06:19;;;;;;;32.17;14.90;;;7.80;81.80;;;;;;2319334;58;22152;-76
2022/01/27 08:08:47;;;;;;;30.35;13.62;;;7.80;81.80;;;;;;2319300;58;21087;-75
2022/01/27 08:11:15;;;;;;;26.80;11.63;;;7.80;82.10;;;;;;2319717;58;21044;-75
2022/01/27 08:13:42;;;;;;;33.13;14.57;;;7.80;82.20;;;;;;2319602;58;21099;-76
2022/01/27 08:16:09;;;;;;;29.45;13.30;;;7.80;82.20;;;;;;2319319;58;21566;-75
2022/01/27 08:18:37;;;;;;;26.33;13.02;;;7.80;82.10;;;;;;2319056;58;21923;-76
2022/01/27 08:21:05;;;;;;;28.25;13.55;;;7.80;82.40;;;;;;2318820;58;21057;-77
2022/01/27 08:23:32;;;;;;;24.00;11.77;;;7.80;83.20;;;;;;2319329;58;21044;-77
2022/01/27 08:26:05;;;;;;;21.95;11.32;;;7.80;82.20;;;;;;2319141;58;21123;-77
2022/01/27 08:28:37;;;;;;;32.75;14.73;;;7.90;82.00;;;;;;2318954;58;21068;-75
2022/01/27 08:31:05;;;;;;;23.65;12.25;;;7.90;81.80;;;;;;2319334;58;21119;-76
2022/01/27 08:33:34;;;;;;;21.48;11.57;;;8.00;81.70;;;;;;2319312;58;21530;-76
2022/01/27 08:36:01;;;;;;;26.65;12.90;;;7.90;81.70;;;;;;2319533;58;21135;-76
2022/01/27 08:38:29;;;;;;;23.58;13.27;;;7.90;81.70;;;;;;2319351;58;21172;-75
2022/01/27 08:40:59;;;;;;;26.20;12.55;;;7.90;81.90;;;;;;2319355;58;21090;-75
2022/01/27 08:43:26;;;;;;;27.52;13.02;;;7.90;82.00;;;;;;2319281;58;21112;-75
2022/01/27 08:45:53;;;;;;;27.17;11.25;;;7.90;82.10;;;;;;2319685;58;21056;-75
2022/01/27 08:48:21;;;;;;;27.30;11.82;;;7.90;82.20;;;;;;2317419;58;21024;-75
2022/01/27 08:50:53;;;;;;;23.08;10.88;;;7.90;82.30;;;;;;2318348;58;21056;-76
2022/01/27 08:53:23;;;;;;;22.77;11.75;;;8.00;82.20;;;;;;2318520;58;21116;-75
2022/01/27 08:55:50;;;;;;;21.33;11.20;;;7.90;82.40;;;;;;2319079;58;21637;-77
2022/01/27 08:58:17;;;;;;;23.25;10.93;;;7.90;82.50;;;;;;2318065;58;21172;-76
2022/01/27 09:00:44;;;;;;;24.37;12.25;;;7.90;82.60;;;;;;2318209;58;21063;-75
2022/01/27 09:03:12;;;;;;;24.73;11.20;;;7.90;82.50;;;;;;2318930;58;21088;-75
2022/01/27 09:05:40;;;;;;;20.75;10.52;;;7.90;82.60;;;;;;2318587;58;21565;-75
2022/01/27 09:08:07;;;;;;;22.70;11.20;;;8.00;82.40;;;;;;2319249;58;21060;-76
2022/01/27 09:10:35;;;;;;;18.95;9.90;;;8.00;82.30;;;;;;2559789;54;21052;-77
2022/01/27 09:13:03;;;;;;;19.70;10.57;;;8.10;81.90;;;;;;2317872;58;21052;-75
2022/01/27 09:15:32;;;;;;;21.37;10.38;;;8.10;81.90;;;;;;2318853;58;21052;-76
2022/01/27 09:18:00;;;;;;;20.37;10.40;;;8.10;82.10;;;;;;2319331;58;21124;-76
2022/01/27 09:20:28;;;;;;;20.17;10.10;;;8.10;81.80;;;;;;2317492;58;21060;-77
2022/01/27 09:22:57;;;;;;;19.27;10.95;;;8.20;81.90;;;;;;2319113;58;21048;-76
2022/01/27 09:25:31;;;;;;;16.98;9.27;;;8.20;81.70;;;;;;2318431;58;21051;-75
2022/01/27 09:27:58;;;;;;;;;;;8.20;81.90;;;;;;2321976;58;21123;-75
2022/01/27 09:30:26;;;;;;;22.48;11.02;;;8.30;81.80;;;;;;2318496;58;20135;-76
2022/01/27 09:32:55;;;;;;;21.60;10.57;;;8.20;81.80;;;;;;2559582;54;21115;-76
2022/01/27 09:35:23;;;;;;;20.17;9.70;;;8.30;82.20;;;;;;2319270;58;21020;-75
2022/01/27 09:37:50;;;;;;;21.37;11.70;;;8.30;82.30;;;;;;2319100;58;21119;-76
2022/01/27 09:40:18;;;;;;;19.40;10.13;;;8.30;82.30;;;;;;2559822;54;21125;-76
2022/01/27 09:42:50;;;;;;;21.55;10.30;;;8.30;82.10;;;;;;2318993;58;21128;-75
2022/01/27 09:45:18;;;;;;;17.73;9.63;;;8.30;82.20;;;;;;2318979;58;21024;-75
2022/01/27 09:47:54;;;;;;;19.90;10.13;;;8.40;81.90;;;;;;2318730;58;21127;-76
2022/01/27 09:50:35;;;;;;;16.42;9.45;;;8.40;82.00;;;;;;2318146;58;21059;-76
2022/01/27 09:53:03;;;;;;;18.23;9.57;;;8.40;82.00;;;;;;2370764;52;68784;-77
2022/01/27 09:55:30;;;;;;;17.98;9.73;;;8.40;82.20;;;;;;2376980;56;21558;-79
2022/01/27 09:58:00;;;;;;;16.92;8.35;;;8.40;82.10;;;;;;2377522;56;21026;-79
2022/01/27 10:00:27;;;;;;;19.92;10.20;;;8.40;82.10;;;;;;2377344;56;21046;-80
2022/01/27 10:03:07;;;;;;;14.52;7.97;;;8.40;82.30;;;;;;2377083;56;21012;-78
2022/01/27 10:05:35;;;;;;;12.55;7.57;;;8.40;82.30;;;;;;2629808;52;21106;-79
2022/01/27 10:08:05;;;;;;;13.75;7.32;;;8.40;82.30;;;;;;2629489;52;21633;-79
2022/01/27 10:10:38;;;;;;;14.18;7.57;;;8.40;82.50;;;;;;2628752;52;21110;-79
2022/01/27 10:13:08;;;;;;;14.20;7.07;;;8.40;82.30;;;;;;2376333;56;21039;-80
2022/01/27 10:15:41;;;;;;;14.55;8.07;;;8.60;82.40;;;;;;2629319;52;21050;-79
2022/01/27 10:18:11;;;;;;;15.43;8.73;;;8.50;82.60;;;;;;2629644;52;21622;-79
2022/01/27 10:20:40;;;;;;;17.98;7.37;;;8.50;82.70;;;;;;2375509;56;21031;-79
2022/01/27 10:23:17;;;;;;;19.70;8.23;;;8.50;82.70;;;;;;2376049;56;21086;-79
2022/01/27 10:25:47;;;;;;;19.30;8.90;;;8.60;82.90;;;;;;2376255;56;21038;-79
2022/01/27 10:28:40;;;;;;;16.55;8.38;;;8.60;82.60;;;;;;2375662;56;21035;-79
2022/01/27 10:31:10;;;;;;;15.38;7.85;;;8.60;83.00;;;;;;2628429;52;21101;-77
2022/01/27 10:33:46;;;;;;;15.88;6.65;;;8.70;83.20;;;;;;2628515;52;21025;-77
2022/01/27 10:36:20;;;;;;;15.70;7.15;;;8.60;83.10;;;;;;2629044;52;21003;-77
2022/01/27 10:38:49;;;;;;;14.23;7.25;;;8.70;83.20;;;;;;2375360;56;21571;-76
2022/01/27 10:41:16;;;;;;;13.50;6.75;;;8.70;83.20;;;;;;2629275;52;21111;-78
2022/01/27 10:43:45;;;;;;;8.93;5.10;;;8.80;83.40;;;;;;2375357;56;22063;-79
2022/01/27 10:46:20;;;;;;;15.10;6.43;;;8.80;83.00;;;;;;2628542;52;21035;-78
2022/01/27 10:48:53;;;;;;;17.35;6.72;;;8.80;83.60;;;;;;2375250;56;21038;-78
2022/01/27 10:51:22;;;;;;;15.05;6.93;;;8.80;83.70;;;;;;2628617;52;21035;-79
2022/01/27 10:53:59;;;;;;;14.98;6.60;;;8.80;83.80;;;;;;2375314;56;21023;-78
2022/01/27 10:56:29;;;;;;;17.73;6.68;;;8.80;83.80;;;;;;2375295;56;21070;-77
2022/01/27 10:58:58;;;;;;;18.15;5.90;;;8.90;84.10;;;;;;2628160;52;21054;-78
2022/01/27 11:01:30;;;;;;;19.55;5.37;;;8.90;83.90;;;;;;2375380;56;21526;-77
2022/01/27 11:04:01;;;;;;;16.83;6.70;;;8.90;83.90;;;;;;2375340;56;21031;-77
2022/01/27 11:06:31;;;;;;;23.20;7.28;;;9.00;84.00;;;;;;2628998;52;21481;-75
2022/01/27 11:09:04;;;;;;;21.02;8.27;;;9.00;84.10;;;;;;2375050;56;21635;-77
2022/01/27 11:11:32;;;;;;;20.67;7.23;;;9.00;84.00;;;;;;2375491;56;20999;-77
2022/01/27 11:13:59;;;;;;;21.92;7.45;;;9.10;84.30;;;;;;2628863;52;21078;-77
2022/01/27 11:16:34;;;;;;;16.25;6.40;;;9.10;84.00;;;;;;2374953;56;21097;-78
2022/01/27 11:19:16;;;;;;;19.25;6.70;;;9.20;84.10;;;;;;2375499;56;21090;-78
2022/01/27 11:21:47;;;;;;;22.13;6.62;;;9.20;84.10;;;;;;2629660;52;21050;-78
2022/01/27 11:24:25;;;;;;;28.48;7.95;;;9.30;84.00;;;;;;2629032;52;21143;-78
2022/01/27 11:26:55;;;;;;;24.37;7.90;;;9.30;84.20;;;;;;2375435;56;21043;-78
2022/01/27 11:29:25;;;;;;;24.48;6.07;;;9.30;84.60;;;;;;2375161;56;21619;-78
2022/01/27 11:34:52;;;;;;;28.05;6.95;;;9.40;84.70;;;;;;2569121;54;22056;-76
2022/01/27 11:37:32;;;;;;;17.17;5.07;;;9.40;84.50;;;;;;2317756;58;21199;-76
2022/01/27 11:40:04;;;;;;;32.05;6.70;;;9.50;83.90;;;;;;2331854;57;21137;-80
2022/01/27 11:43:00;;;;;;;24.37;6.95;;;9.50;83.90;;;;;;2345911;57;21168;-78
2022/01/27 11:45:30;;;;;;;35.75;7.57;;;9.50;83.80;;;;;;2346075;57;21697;-81
2022/01/27 11:47:59;;;;;;;34.22;6.65;;;9.60;84.00;;;;;;2345721;57;21105;-78
2022/01/27 11:50:33;;;;;;;27.10;6.40;;;9.60;84.00;;;;;;2345311;57;21077;-77
2022/01/27 11:53:02;;;;;;;28.33;6.03;;;9.60;83.90;;;;;;2346006;57;21038;-77
2022/01/27 11:55:44;;;;;;;35.05;6.20;;;9.70;84.00;;;;;;2345613;57;21034;-77
2022/01/27 11:58:17;;;;;;;30.37;7.05;;;9.70;84.00;;;;;;2345155;57;21041;-77
2022/01/27 12:01:21;;;;;;;34.90;6.30;;;9.70;83.80;;;;;;2345191;57;21057;-80
2022/01/27 12:07:06;;;;;;;20.85;4.30;;;9.90;82.70;;;;;;2355843;57;22595;-75
2022/01/27 12:09:35;;;;;;;27.77;5.60;;;9.90;81.70;;;;;;2355544;56;21051;-77
2022/01/27 12:12:11;;;;;;;27.42;5.15;;;9.90;81.40;;;;;;2628578;52;22136;-77
2022/01/27 12:15:08;;;;;;;32.17;5.05;;;9.90;81.60;;;;;;2375197;56;21102;-77
2022/01/27 12:17:36;;;;;;;28.80;4.57;;;10.00;81.40;;;;;;2375030;56;21058;-78
2022/01/27 12:20:08;;;;;;;29.40;5.00;;;10.00;80.70;;;;;;2628101;52;21035;-77
2022/01/27 12:25:45;;;;;;;27.52;5.65;;;10.10;80.00;;;;;;2355165;57;22588;-75
2022/01/27 12:28:13;;;;;;;32.90;5.93;;;10.10;79.60;;;;;;2347219;57;21065;-77
2022/01/27 12:30:40;;;;;;;34.70;4.53;;;10.10;79.20;;;;;;2367969;56;21098;-75
2022/01/27 12:33:07;;;;;;;26.73;4.32;;;10.10;78.90;;;;;;2628750;52;21591;-75
2022/01/27 12:35:35;;;;;;;29.63;4.93;;;10.10;78.50;;;;;;2374876;56;21042;-76
2022/01/27 12:38:02;;;;;;;30.17;5.45;;;10.10;77.70;;;;;;2374529;56;21023;-74
2022/01/27 12:40:33;;;;;;;25.17;4.93;;;10.10;77.90;;;;;;2374450;56;21055;-75
2022/01/27 12:43:06;;;;;;;28.45;5.82;;;10.10;77.80;;;;;;2374939;56;21035;-74
2022/01/27 12:45:36;;;;;;;32.17;4.97;;;10.10;77.70;;;;;;2375036;56;21039;-76
2022/01/27 12:48:09;;;;;;;29.50;4.93;;;10.20;77.90;;;;;;2375261;56;21042;-79
2022/01/27 12:50:37;;;;;;;18.87;4.05;;;10.20;77.90;;;;;;2374796;56;21142;-75
2022/01/27 12:53:10;;;;;;;26.80;4.85;;;10.20;77.50;;;;;;2375114;56;21122;-75
2022/01/27 12:55:40;;;;;;;28.00;4.20;;;10.30;77.10;;;;;;2374619;56;21039;-75
2022/01/27 12:58:09;;;;;;;19.23;3.67;;;10.30;77.00;;;;;;2374933;56;21023;-75
2022/01/27 13:00:39;;;;;;;27.00;4.22;;;10.30;76.70;;;;;;2374560;56;21059;-76
2022/01/27 13:03:07;;;;;;;26.83;4.07;;;10.20;76.60;;;;;;2375024;56;21059;-78
2022/01/27 13:05:36;;;;;;;21.95;4.50;;;10.20;76.40;;;;;;2374614;56;21113;-77
2022/01/27 13:08:04;;;;;;;25.45;4.00;;;10.20;76.50;;;;;;2374858;56;21078;-75
2022/01/27 13:10:32;;;;;;;24.37;3.75;;;10.30;76.10;;;;;;2374614;56;21047;-75
2022/01/27 13:13:07;;;;;;;19.65;4.70;;;10.30;75.70;;;;;;2374821;56;21051;-74
2022/01/27 13:15:36;;;;;;;24.95;4.45;;;10.30;76.70;;;;;;2374540;56;21556;-75
2022/01/27 13:18:13;;;;;;;29.15;4.80;;;10.30;75.80;;;;;;2374975;56;21106;-76
2022/01/27 13:20:44;;;;;;;20.70;4.28;;;10.40;76.00;;;;;;2374270;56;21027;-75
2022/01/27 13:23:17;;;;;;;27.75;4.53;;;10.40;76.00;;;;;;2375035;56;21180;-75
2022/01/27 13:25:47;;;;;;;19.20;4.97;;;10.40;75.50;;;;;;2374520;56;21182;-77
2022/01/27 13:28:20;;;;;;;27.67;4.18;;;10.40;75.60;;;;;;2374496;56;21137;-78
2022/01/27 13:30:50;;;;;;;14.32;3.22;;;10.50;75.70;;;;;;2374586;56;21058;-77
2022/01/27 13:33:19;;;;;;;16.77;4.07;;;10.50;75.40;;;;;;2375106;56;21112;-77